sensor_id;sensor_type;location;lat;lon;timestamp;temperature;humidity
10492;DHT22;5293;51.464;-2.566;2023-05-10T00:02:06;12.50;99.90
10492;DHT22;5293;51.464;-2.566;2023-05-10T00:04:32;12.50;99.90
10492;DHT22;5293;51.464;-2.566;2023-05-10T00:06:58;12.50;99.90
10492;DHT22;5293;51.464;-2.566;2023-05-10T00:09:23;12.50;99.90
10492;DHT22;5293;51.464;-2.566;2023-05-10T00:11:49;12.50;99.90
10492;DHT22;5293;51.464;-2.566;2023-05-10T00:14:15;12.40;99.90
10492;DHT22;5293;51.464;-2.566;2023-05-10T00:16:41;12.40;99.90
10492;DHT22;5293;51.464;-2.566;2023-05-10T00:19:06;12.40;99.90
10492;DHT22;5293;51.464;-2.566;2023-05-10T00:21:32;12.40;99.90
10492;DHT22;5293;51.464;-2.566;2023-05-10T00:23:59;12.40;99.90
10492;DHT22;5293;51.464;-2.566;2023-05-10T00:26:25;12.40;99.90
10492;DHT22;5293;51.464;-2.566;2023-05-10T00:28:50;12.40;99.90
10492;DHT22;5293;51.464;-2.566;2023-05-10T00:31:16;12.40;99.90
10492;DHT22;5293;51.464;-2.566;2023-05-10T00:33:42;12.40;99.90
10492;DHT22;5293;51.464;-2.566;2023-05-10T00:36:08;12.40;99.90
10492;DHT22;5293;51.464;-2.566;2023-05-10T00:38:34;12.40;99.90
10492;DHT22;5293;51.464;-2.566;2023-05-10T00:40:59;12.40;99.90
10492;DHT22;5293;51.464;-2.566;2023-05-10T00:43:25;12.40;99.90
10492;DHT22;5293;51.464;-2.566;2023-05-10T00:45:51;12.40;99.90
10492;DHT22;5293;51.464;-2.566;2023-05-10T00:48:16;12.50;99.90
10492;DHT22;5293;51.464;-2.566;2023-05-10T00:50:42;12.40;99.90
10492;DHT22;5293;51.464;-2.566;2023-05-10T00:53:08;12.50;99.90
10492;DHT22;5293;51.464;-2.566;2023-05-10T00:55:34;12.40;99.90
10492;DHT22;5293;51.464;-2.566;2023-05-10T00:58:00;12.50;99.90
10492;DHT22;5293;51.464;-2.566;2023-05-10T01:00:27;12.50;99.90
10492;DHT22;5293;51.464;-2.566;2023-05-10T01:02:53;12.50;99.90
10492;DHT22;5293;51.464;-2.566;2023-05-10T01:05:19;12.40;99.90
10492;DHT22;5293;51.464;-2.566;2023-05-10T01:07:45;12.40;99.90
10492;DHT22;5293;51.464;-2.566;2023-05-10T01:10:10;12.50;99.90
10492;DHT22;5293;51.464;-2.566;2023-05-10T01:12:39;12.50;99.90
10492;DHT22;5293;51.464;-2.566;2023-05-10T01:15:07;12.50;99.90
10492;DHT22;5293;51.464;-2.566;2023-05-10T01:17:35;12.50;99.90
10492;DHT22;5293;51.464;-2.566;2023-05-10T01:20:03;12.40;99.90
10492;DHT22;5293;51.464;-2.566;2023-05-10T01:25:36;12.40;99.90
10492;DHT22;5293;51.464;-2.566;2023-05-10T01:28:20;12.40;99.90
10492;DHT22;5293;51.464;-2.566;2023-05-10T01:33:56;12.30;99.90
10492;DHT22;5293;51.464;-2.566;2023-05-10T01:36:46;12.30;99.90
10492;DHT22;5293;51.464;-2.566;2023-05-10T01:39:17;12.20;99.90
10492;DHT22;5293;51.464;-2.566;2023-05-10T01:44:44;12.20;99.90
10492;DHT22;5293;51.464;-2.566;2023-05-10T01:47:19;12.30;99.90
10492;DHT22;5293;51.464;-2.566;2023-05-10T01:49:50;12.30;99.90
10492;DHT22;5293;51.464;-2.566;2023-05-10T01:52:19;12.30;99.90
10492;DHT22;5293;51.464;-2.566;2023-05-10T01:54:58;12.30;99.90
10492;DHT22;5293;51.464;-2.566;2023-05-10T01:57:27;12.30;99.90
10492;DHT22;5293;51.464;-2.566;2023-05-10T01:59:58;12.40;99.90
10492;DHT22;5293;51.464;-2.566;2023-05-10T02:02:27;12.40;99.90
10492;DHT22;5293;51.464;-2.566;2023-05-10T02:04:54;12.30;99.90
10492;DHT22;5293;51.464;-2.566;2023-05-10T02:07:22;12.30;99.90
10492;DHT22;5293;51.464;-2.566;2023-05-10T02:09:48;12.30;99.90
10492;DHT22;5293;51.464;-2.566;2023-05-10T02:12:15;12.30;99.90
10492;DHT22;5293;51.464;-2.566;2023-05-10T02:14:42;12.20;99.90
10492;DHT22;5293;51.464;-2.566;2023-05-10T02:17:09;12.30;99.90
10492;DHT22;5293;51.464;-2.566;2023-05-10T02:19:38;12.30;99.90
10492;DHT22;5293;51.464;-2.566;2023-05-10T02:22:05;12.20;99.90
10492;DHT22;5293;51.464;-2.566;2023-05-10T02:24:32;12.20;99.90
10492;DHT22;5293;51.464;-2.566;2023-05-10T02:27:00;12.20;99.90
10492;DHT22;5293;51.464;-2.566;2023-05-10T02:29:28;12.20;99.90
10492;DHT22;5293;51.464;-2.566;2023-05-10T02:31:55;12.30;99.90
10492;DHT22;5293;51.464;-2.566;2023-05-10T02:34:22;12.30;99.90
10492;DHT22;5293;51.464;-2.566;2023-05-10T02:36:49;12.40;99.90
10492;DHT22;5293;51.464;-2.566;2023-05-10T02:39:17;12.40;99.90
10492;DHT22;5293;51.464;-2.566;2023-05-10T02:41:45;12.50;99.90
10492;DHT22;5293;51.464;-2.566;2023-05-10T02:44:14;12.50;99.90
10492;DHT22;5293;51.464;-2.566;2023-05-10T02:46:40;12.50;99.90
10492;DHT22;5293;51.464;-2.566;2023-05-10T02:49:06;12.60;99.90
10492;DHT22;5293;51.464;-2.566;2023-05-10T02:51:34;12.60;99.90
10492;DHT22;5293;51.464;-2.566;2023-05-10T02:54:07;12.50;99.90
10492;DHT22;5293;51.464;-2.566;2023-05-10T02:56:36;12.50;99.90
10492;DHT22;5293;51.464;-2.566;2023-05-10T02:59:04;12.50;99.90
10492;DHT22;5293;51.464;-2.566;2023-05-10T03:01:30;12.60;99.90
10492;DHT22;5293;51.464;-2.566;2023-05-10T03:03:56;12.60;99.90
10492;DHT22;5293;51.464;-2.566;2023-05-10T03:06:21;12.60;99.90
10492;DHT22;5293;51.464;-2.566;2023-05-10T03:08:47;12.60;99.90
10492;DHT22;5293;51.464;-2.566;2023-05-10T03:11:35;12.60;99.90
10492;DHT22;5293;51.464;-2.566;2023-05-10T03:16:50;12.40;99.90
10492;DHT22;5293;51.464;-2.566;2023-05-10T03:19:24;12.40;99.90
10492;DHT22;5293;51.464;-2.566;2023-05-10T03:21:53;12.30;99.90
10492;DHT22;5293;51.464;-2.566;2023-05-10T03:24:21;12.20;99.90
10492;DHT22;5293;51.464;-2.566;2023-05-10T03:26:49;12.30;99.90
10492;DHT22;5293;51.464;-2.566;2023-05-10T03:29:15;12.20;99.90
10492;DHT22;5293;51.464;-2.566;2023-05-10T03:31:42;12.20;99.90
10492;DHT22;5293;51.464;-2.566;2023-05-10T03:34:08;12.30;99.90
10492;DHT22;5293;51.464;-2.566;2023-05-10T03:36:34;12.30;99.90
10492;DHT22;5293;51.464;-2.566;2023-05-10T03:38:59;12.20;99.90
10492;DHT22;5293;51.464;-2.566;2023-05-10T03:41:25;12.20;99.90
10492;DHT22;5293;51.464;-2.566;2023-05-10T03:43:51;12.20;99.90
10492;DHT22;5293;51.464;-2.566;2023-05-10T03:46:17;12.20;99.90
10492;DHT22;5293;51.464;-2.566;2023-05-10T03:48:43;12.20;99.90
10492;DHT22;5293;51.464;-2.566;2023-05-10T03:51:08;12.30;99.90
10492;DHT22;5293;51.464;-2.566;2023-05-10T03:53:34;12.30;99.90
10492;DHT22;5293;51.464;-2.566;2023-05-10T03:55:59;12.30;99.90
10492;DHT22;5293;51.464;-2.566;2023-05-10T03:58:25;12.30;99.90
10492;DHT22;5293;51.464;-2.566;2023-05-10T04:00:51;12.20;99.90
10492;DHT22;5293;51.464;-2.566;2023-05-10T04:03:17;12.20;99.90
10492;DHT22;5293;51.464;-2.566;2023-05-10T04:05:43;12.30;99.90
10492;DHT22;5293;51.464;-2.566;2023-05-10T04:08:09;12.30;99.90
10492;DHT22;5293;51.464;-2.566;2023-05-10T04:10:34;12.20;99.90
10492;DHT22;5293;51.464;-2.566;2023-05-10T04:13:00;12.20;99.90
10492;DHT22;5293;51.464;-2.566;2023-05-10T04:15:26;12.20;99.90
10492;DHT22;5293;51.464;-2.566;2023-05-10T04:17:52;12.10;99.90
10492;DHT22;5293;51.464;-2.566;2023-05-10T04:20:17;12.10;99.90
10492;DHT22;5293;51.464;-2.566;2023-05-10T04:22:43;12.10;99.90
10492;DHT22;5293;51.464;-2.566;2023-05-10T04:25:09;12.00;99.90
10492;DHT22;5293;51.464;-2.566;2023-05-10T04:27:35;11.90;99.90
10492;DHT22;5293;51.464;-2.566;2023-05-10T04:30:01;11.90;99.90
10492;DHT22;5293;51.464;-2.566;2023-05-10T04:32:27;11.90;99.90
10492;DHT22;5293;51.464;-2.566;2023-05-10T04:34:53;12.00;99.90
10492;DHT22;5293;51.464;-2.566;2023-05-10T04:37:19;11.90;99.90
10492;DHT22;5293;51.464;-2.566;2023-05-10T04:39:46;11.80;99.90
10492;DHT22;5293;51.464;-2.566;2023-05-10T04:42:12;11.80;99.90
10492;DHT22;5293;51.464;-2.566;2023-05-10T04:44:40;11.90;99.90
10492;DHT22;5293;51.464;-2.566;2023-05-10T04:47:06;12.10;99.90
10492;DHT22;5293;51.464;-2.566;2023-05-10T04:49:31;12.10;99.90
10492;DHT22;5293;51.464;-2.566;2023-05-10T04:51:57;12.10;99.90
10492;DHT22;5293;51.464;-2.566;2023-05-10T04:54:23;12.20;99.90
10492;DHT22;5293;51.464;-2.566;2023-05-10T04:56:49;12.10;99.90
10492;DHT22;5293;51.464;-2.566;2023-05-10T04:59:14;12.20;99.90
10492;DHT22;5293;51.464;-2.566;2023-05-10T05:01:40;12.30;99.90
10492;DHT22;5293;51.464;-2.566;2023-05-10T05:04:06;12.40;99.90
10492;DHT22;5293;51.464;-2.566;2023-05-10T05:06:32;12.40;99.90
10492;DHT22;5293;51.464;-2.566;2023-05-10T05:08:57;12.50;99.90
10492;DHT22;5293;51.464;-2.566;2023-05-10T05:11:23;12.60;99.90
10492;DHT22;5293;51.464;-2.566;2023-05-10T05:13:49;12.60;99.90
10492;DHT22;5293;51.464;-2.566;2023-05-10T05:16:14;12.70;99.90
10492;DHT22;5293;51.464;-2.566;2023-05-10T05:18:40;12.70;99.90
10492;DHT22;5293;51.464;-2.566;2023-05-10T05:21:16;12.70;99.90
10492;DHT22;5293;51.464;-2.566;2023-05-10T05:23:42;12.70;99.90
10492;DHT22;5293;51.464;-2.566;2023-05-10T05:26:08;12.80;99.90
10492;DHT22;5293;51.464;-2.566;2023-05-10T05:28:33;12.70;99.90
10492;DHT22;5293;51.464;-2.566;2023-05-10T05:31:05;12.70;99.90
10492;DHT22;5293;51.464;-2.566;2023-05-10T05:33:31;12.90;99.90
10492;DHT22;5293;51.464;-2.566;2023-05-10T05:35:57;12.90;99.90
10492;DHT22;5293;51.464;-2.566;2023-05-10T05:38:22;12.90;99.90
10492;DHT22;5293;51.464;-2.566;2023-05-10T05:40:49;13.00;99.90
10492;DHT22;5293;51.464;-2.566;2023-05-10T05:43:14;13.10;99.90
10492;DHT22;5293;51.464;-2.566;2023-05-10T05:45:40;13.20;99.90
10492;DHT22;5293;51.464;-2.566;2023-05-10T05:48:06;13.20;99.90
10492;DHT22;5293;51.464;-2.566;2023-05-10T05:50:31;13.20;99.90
10492;DHT22;5293;51.464;-2.566;2023-05-10T05:52:57;13.20;99.90
10492;DHT22;5293;51.464;-2.566;2023-05-10T05:55:23;13.20;99.90
10492;DHT22;5293;51.464;-2.566;2023-05-10T05:57:49;13.30;99.90
10492;DHT22;5293;51.464;-2.566;2023-05-10T06:00:15;13.30;99.90
10492;DHT22;5293;51.464;-2.566;2023-05-10T06:02:41;13.40;99.90
10492;DHT22;5293;51.464;-2.566;2023-05-10T06:05:07;13.50;99.90
10492;DHT22;5293;51.464;-2.566;2023-05-10T06:07:33;13.50;99.90
10492;DHT22;5293;51.464;-2.566;2023-05-10T06:09:58;13.60;99.90
10492;DHT22;5293;51.464;-2.566;2023-05-10T06:12:24;13.60;99.90
10492;DHT22;5293;51.464;-2.566;2023-05-10T06:14:50;13.70;99.90
10492;DHT22;5293;51.464;-2.566;2023-05-10T06:17:15;13.90;99.90
10492;DHT22;5293;51.464;-2.566;2023-05-10T06:19:41;14.00;99.90
10492;DHT22;5293;51.464;-2.566;2023-05-10T06:22:07;14.10;99.90
10492;DHT22;5293;51.464;-2.566;2023-05-10T06:24:32;14.40;99.90
10492;DHT22;5293;51.464;-2.566;2023-05-10T06:26:58;14.60;99.90
10492;DHT22;5293;51.464;-2.566;2023-05-10T06:29:25;14.70;99.90
10492;DHT22;5293;51.464;-2.566;2023-05-10T06:31:51;14.80;99.90
10492;DHT22;5293;51.464;-2.566;2023-05-10T06:34:16;14.90;99.90
10492;DHT22;5293;51.464;-2.566;2023-05-10T06:36:42;15.20;99.90
10492;DHT22;5293;51.464;-2.566;2023-05-10T06:39:08;15.30;99.90
10492;DHT22;5293;51.464;-2.566;2023-05-10T06:41:33;15.30;99.90
10492;DHT22;5293;51.464;-2.566;2023-05-10T06:43:59;15.20;99.90
10492;DHT22;5293;51.464;-2.566;2023-05-10T06:46:25;15.00;99.90
10492;DHT22;5293;51.464;-2.566;2023-05-10T06:48:50;15.00;99.90
10492;DHT22;5293;51.464;-2.566;2023-05-10T06:51:18;15.20;99.90
10492;DHT22;5293;51.464;-2.566;2023-05-10T06:53:45;15.30;99.90
10492;DHT22;5293;51.464;-2.566;2023-05-10T06:56:10;15.30;99.90
10492;DHT22;5293;51.464;-2.566;2023-05-10T06:58:36;15.40;99.90
10492;DHT22;5293;51.464;-2.566;2023-05-10T07:01:03;15.40;99.90
10492;DHT22;5293;51.464;-2.566;2023-05-10T07:03:29;15.20;99.90
10492;DHT22;5293;51.464;-2.566;2023-05-10T07:06:03;15.00;99.90
10492;DHT22;5293;51.464;-2.566;2023-05-10T07:08:30;14.90;99.90
10492;DHT22;5293;51.464;-2.566;2023-05-10T07:11:06;14.80;99.90
10492;DHT22;5293;51.464;-2.566;2023-05-10T07:13:35;14.80;99.90
10492;DHT22;5293;51.464;-2.566;2023-05-10T07:16:02;14.50;99.90
10492;DHT22;5293;51.464;-2.566;2023-05-10T07:18:28;14.50;99.90
10492;DHT22;5293;51.464;-2.566;2023-05-10T07:20:54;14.60;99.90
10492;DHT22;5293;51.464;-2.566;2023-05-10T07:23:20;14.60;99.90
10492;DHT22;5293;51.464;-2.566;2023-05-10T07:25:47;14.70;99.90
10492;DHT22;5293;51.464;-2.566;2023-05-10T07:28:13;14.60;99.90
10492;DHT22;5293;51.464;-2.566;2023-05-10T07:30:39;14.60;99.90
10492;DHT22;5293;51.464;-2.566;2023-05-10T07:33:05;14.60;99.90
10492;DHT22;5293;51.464;-2.566;2023-05-10T07:35:31;14.80;99.90
10492;DHT22;5293;51.464;-2.566;2023-05-10T07:37:57;14.70;99.90
10492;DHT22;5293;51.464;-2.566;2023-05-10T07:40:22;14.70;99.90
10492;DHT22;5293;51.464;-2.566;2023-05-10T07:42:48;14.60;99.90
10492;DHT22;5293;51.464;-2.566;2023-05-10T07:45:13;14.60;99.90
10492;DHT22;5293;51.464;-2.566;2023-05-10T07:47:39;14.70;99.90
10492;DHT22;5293;51.464;-2.566;2023-05-10T07:50:05;14.80;99.90
10492;DHT22;5293;51.464;-2.566;2023-05-10T07:52:31;14.80;99.90
10492;DHT22;5293;51.464;-2.566;2023-05-10T07:54:57;14.90;99.90
10492;DHT22;5293;51.464;-2.566;2023-05-10T07:57:22;15.00;99.90
10492;DHT22;5293;51.464;-2.566;2023-05-10T07:59:48;15.20;99.90
10492;DHT22;5293;51.464;-2.566;2023-05-10T08:02:14;15.20;99.90
10492;DHT22;5293;51.464;-2.566;2023-05-10T08:04:39;15.30;99.90
10492;DHT22;5293;51.464;-2.566;2023-05-10T08:07:05;15.20;99.90
10492;DHT22;5293;51.464;-2.566;2023-05-10T08:09:31;15.20;99.90
10492;DHT22;5293;51.464;-2.566;2023-05-10T08:11:56;15.30;99.90
10492;DHT22;5293;51.464;-2.566;2023-05-10T08:14:24;15.20;99.90
10492;DHT22;5293;51.464;-2.566;2023-05-10T08:16:49;15.00;99.90
10492;DHT22;5293;51.464;-2.566;2023-05-10T08:19:15;14.90;99.90
10492;DHT22;5293;51.464;-2.566;2023-05-10T08:21:44;14.90;99.90
10492;DHT22;5293;51.464;-2.566;2023-05-10T08:24:10;14.90;99.90
10492;DHT22;5293;51.464;-2.566;2023-05-10T08:26:36;14.90;99.90
10492;DHT22;5293;51.464;-2.566;2023-05-10T08:29:02;15.00;99.90
10492;DHT22;5293;51.464;-2.566;2023-05-10T08:31:28;15.20;99.90
10492;DHT22;5293;51.464;-2.566;2023-05-10T08:33:53;15.30;99.90
10492;DHT22;5293;51.464;-2.566;2023-05-10T08:36:19;15.40;99.90
10492;DHT22;5293;51.464;-2.566;2023-05-10T08:38:49;15.50;99.90
10492;DHT22;5293;51.464;-2.566;2023-05-10T08:41:15;15.30;99.90
10492;DHT22;5293;51.464;-2.566;2023-05-10T08:43:41;15.40;99.90
10492;DHT22;5293;51.464;-2.566;2023-05-10T08:46:17;15.40;99.90
10492;DHT22;5293;51.464;-2.566;2023-05-10T08:48:47;15.50;99.90
10492;DHT22;5293;51.464;-2.566;2023-05-10T08:51:15;15.50;99.90
10492;DHT22;5293;51.464;-2.566;2023-05-10T08:53:42;15.60;99.90
10492;DHT22;5293;51.464;-2.566;2023-05-10T08:56:08;15.60;99.90
10492;DHT22;5293;51.464;-2.566;2023-05-10T08:58:34;15.80;99.90
10492;DHT22;5293;51.464;-2.566;2023-05-10T09:01:00;15.80;99.90
10492;DHT22;5293;51.464;-2.566;2023-05-10T09:03:26;15.90;99.90
10492;DHT22;5293;51.464;-2.566;2023-05-10T09:05:52;16.10;99.90
10492;DHT22;5293;51.464;-2.566;2023-05-10T09:08:18;16.10;99.90
10492;DHT22;5293;51.464;-2.566;2023-05-10T09:10:45;16.10;99.90
10492;DHT22;5293;51.464;-2.566;2023-05-10T09:13:15;16.10;99.90
10492;DHT22;5293;51.464;-2.566;2023-05-10T09:15:41;16.00;99.90
10492;DHT22;5293;51.464;-2.566;2023-05-10T09:18:06;16.10;99.90
10492;DHT22;5293;51.464;-2.566;2023-05-10T09:20:32;16.00;99.90
10492;DHT22;5293;51.464;-2.566;2023-05-10T09:22:58;15.70;99.90
10492;DHT22;5293;51.464;-2.566;2023-05-10T09:25:23;15.90;99.90
10492;DHT22;5293;51.464;-2.566;2023-05-10T09:27:49;16.00;99.90
10492;DHT22;5293;51.464;-2.566;2023-05-10T09:32:50;16.00;99.90
10492;DHT22;5293;51.464;-2.566;2023-05-10T09:35:18;16.20;99.90
10492;DHT22;5293;51.464;-2.566;2023-05-10T09:37:46;16.20;99.90
10492;DHT22;5293;51.464;-2.566;2023-05-10T09:40:20;16.50;99.90
10492;DHT22;5293;51.464;-2.566;2023-05-10T09:45:30;16.40;99.90
10492;DHT22;5293;51.464;-2.566;2023-05-10T09:47:57;16.30;99.90
10492;DHT22;5293;51.464;-2.566;2023-05-10T09:50:23;16.20;99.90
10492;DHT22;5293;51.464;-2.566;2023-05-10T09:52:54;16.40;99.90
10492;DHT22;5293;51.464;-2.566;2023-05-10T09:55:24;16.40;99.90
10492;DHT22;5293;51.464;-2.566;2023-05-10T09:57:59;16.30;99.90
10492;DHT22;5293;51.464;-2.566;2023-05-10T10:00:26;16.40;99.90
10492;DHT22;5293;51.464;-2.566;2023-05-10T10:02:59;16.60;99.90
10492;DHT22;5293;51.464;-2.566;2023-05-10T10:05:32;16.60;99.90
10492;DHT22;5293;51.464;-2.566;2023-05-10T10:07:58;16.60;99.90
10492;DHT22;5293;51.464;-2.566;2023-05-10T10:10:25;16.60;99.90
10492;DHT22;5293;51.464;-2.566;2023-05-10T10:12:51;16.40;99.90
10492;DHT22;5293;51.464;-2.566;2023-05-10T10:15:17;16.40;99.90
10492;DHT22;5293;51.464;-2.566;2023-05-10T10:17:43;16.50;99.90
10492;DHT22;5293;51.464;-2.566;2023-05-10T10:20:09;16.50;99.90
10492;DHT22;5293;51.464;-2.566;2023-05-10T10:22:36;16.40;99.90
10492;DHT22;5293;51.464;-2.566;2023-05-10T10:25:03;16.20;99.90
10492;DHT22;5293;51.464;-2.566;2023-05-10T10:30:24;16.80;99.90
10492;DHT22;5293;51.464;-2.566;2023-05-10T10:35:46;16.70;99.90
10492;DHT22;5293;51.464;-2.566;2023-05-10T10:38:15;16.60;99.90
10492;DHT22;5293;51.464;-2.566;2023-05-10T10:40:41;16.70;99.90
10492;DHT22;5293;51.464;-2.566;2023-05-10T10:43:23;16.60;99.90
10492;DHT22;5293;51.464;-2.566;2023-05-10T10:46:16;16.70;99.90
10492;DHT22;5293;51.464;-2.566;2023-05-10T10:48:50;16.60;99.90
10492;DHT22;5293;51.464;-2.566;2023-05-10T10:51:19;16.70;99.90
10492;DHT22;5293;51.464;-2.566;2023-05-10T10:53:44;16.70;99.90
10492;DHT22;5293;51.464;-2.566;2023-05-10T10:56:13;17.00;99.90
10492;DHT22;5293;51.464;-2.566;2023-05-10T10:58:41;16.80;99.90
10492;DHT22;5293;51.464;-2.566;2023-05-10T11:01:11;16.90;99.90
10492;DHT22;5293;51.464;-2.566;2023-05-10T11:03:37;17.00;99.90
10492;DHT22;5293;51.464;-2.566;2023-05-10T11:06:03;17.30;99.90
10492;DHT22;5293;51.464;-2.566;2023-05-10T11:08:30;17.30;99.90
10492;DHT22;5293;51.464;-2.566;2023-05-10T11:16:20;16.90;99.90
10492;DHT22;5293;51.464;-2.566;2023-05-10T11:21:31;16.60;99.90
10492;DHT22;5293;51.464;-2.566;2023-05-10T11:23:59;16.50;99.90
10492;DHT22;5293;51.464;-2.566;2023-05-10T11:26:35;16.60;99.90
10492;DHT22;5293;51.464;-2.566;2023-05-10T11:29:01;16.50;99.90
10492;DHT22;5293;51.464;-2.566;2023-05-10T11:31:28;16.40;99.90
10492;DHT22;5293;51.464;-2.566;2023-05-10T11:33:56;16.60;99.90
10492;DHT22;5293;51.464;-2.566;2023-05-10T11:36:27;16.90;99.90
10492;DHT22;5293;51.464;-2.566;2023-05-10T11:38:54;17.10;99.90
10492;DHT22;5293;51.464;-2.566;2023-05-10T11:41:21;17.20;99.90
10492;DHT22;5293;51.464;-2.566;2023-05-10T11:43:50;17.30;99.90
10492;DHT22;5293;51.464;-2.566;2023-05-10T11:46:17;17.30;99.90
10492;DHT22;5293;51.464;-2.566;2023-05-10T11:48:43;17.40;99.90
10492;DHT22;5293;51.464;-2.566;2023-05-10T11:51:10;17.60;99.90
10492;DHT22;5293;51.464;-2.566;2023-05-10T11:53:36;17.80;99.90
10492;DHT22;5293;51.464;-2.566;2023-05-10T11:56:08;18.00;99.90
10492;DHT22;5293;51.464;-2.566;2023-05-10T11:58:35;18.30;99.90
10492;DHT22;5293;51.464;-2.566;2023-05-10T12:01:02;18.30;99.90
10492;DHT22;5293;51.464;-2.566;2023-05-10T12:03:28;18.00;99.90
10492;DHT22;5293;51.464;-2.566;2023-05-10T12:05:55;18.00;99.90
10492;DHT22;5293;51.464;-2.566;2023-05-10T12:08:23;17.80;99.90
10492;DHT22;5293;51.464;-2.566;2023-05-10T12:10:49;17.70;99.90
10492;DHT22;5293;51.464;-2.566;2023-05-10T12:13:15;17.70;99.90
10492;DHT22;5293;51.464;-2.566;2023-05-10T12:15:42;17.70;99.90
10492;DHT22;5293;51.464;-2.566;2023-05-10T12:18:14;17.70;99.90
10492;DHT22;5293;51.464;-2.566;2023-05-10T12:20:40;17.70;99.90
10492;DHT22;5293;51.464;-2.566;2023-05-10T12:23:09;17.70;99.90
10492;DHT22;5293;51.464;-2.566;2023-05-10T12:25:36;17.80;99.90
10492;DHT22;5293;51.464;-2.566;2023-05-10T12:28:04;17.60;99.90
10492;DHT22;5293;51.464;-2.566;2023-05-10T12:30:32;17.60;99.90
10492;DHT22;5293;51.464;-2.566;2023-05-10T12:33:06;17.70;99.90
10492;DHT22;5293;51.464;-2.566;2023-05-10T12:35:33;18.00;99.90
10492;DHT22;5293;51.464;-2.566;2023-05-10T12:37:59;18.00;99.90
10492;DHT22;5293;51.464;-2.566;2023-05-10T12:40:25;18.10;99.90
10492;DHT22;5293;51.464;-2.566;2023-05-10T12:42:51;18.30;99.90
10492;DHT22;5293;51.464;-2.566;2023-05-10T12:45:17;18.20;99.90
10492;DHT22;5293;51.464;-2.566;2023-05-10T12:47:43;18.20;99.90
10492;DHT22;5293;51.464;-2.566;2023-05-10T12:50:09;18.30;99.90
10492;DHT22;5293;51.464;-2.566;2023-05-10T12:52:35;18.40;99.90
10492;DHT22;5293;51.464;-2.566;2023-05-10T12:55:01;18.30;99.90
10492;DHT22;5293;51.464;-2.566;2023-05-10T12:57:28;18.40;99.90
10492;DHT22;5293;51.464;-2.566;2023-05-10T12:59:54;18.40;99.90
10492;DHT22;5293;51.464;-2.566;2023-05-10T13:02:20;18.40;99.90
10492;DHT22;5293;51.464;-2.566;2023-05-10T13:04:48;18.60;99.90
10492;DHT22;5293;51.464;-2.566;2023-05-10T13:07:14;18.30;99.90
10492;DHT22;5293;51.464;-2.566;2023-05-10T13:09:39;18.30;99.90
10492;DHT22;5293;51.464;-2.566;2023-05-10T13:12:05;18.30;99.90
10492;DHT22;5293;51.464;-2.566;2023-05-10T13:14:31;18.40;99.90
10492;DHT22;5293;51.464;-2.566;2023-05-10T13:16:57;18.30;99.90
10492;DHT22;5293;51.464;-2.566;2023-05-10T13:19:22;18.20;99.90
10492;DHT22;5293;51.464;-2.566;2023-05-10T13:21:48;18.20;99.90
10492;DHT22;5293;51.464;-2.566;2023-05-10T13:24:14;18.00;99.90
10492;DHT22;5293;51.464;-2.566;2023-05-10T13:26:40;17.90;99.90
10492;DHT22;5293;51.464;-2.566;2023-05-10T13:29:06;17.80;99.90
10492;DHT22;5293;51.464;-2.566;2023-05-10T13:31:32;17.70;99.90
10492;DHT22;5293;51.464;-2.566;2023-05-10T13:33:58;17.50;99.90
10492;DHT22;5293;51.464;-2.566;2023-05-10T13:36:24;17.60;99.90
10492;DHT22;5293;51.464;-2.566;2023-05-10T13:38:49;17.90;99.90
10492;DHT22;5293;51.464;-2.566;2023-05-10T13:41:15;17.80;99.90
10492;DHT22;5293;51.464;-2.566;2023-05-10T13:43:41;17.60;99.90
10492;DHT22;5293;51.464;-2.566;2023-05-10T13:46:06;17.80;99.90
10492;DHT22;5293;51.464;-2.566;2023-05-10T13:48:32;17.80;99.90
10492;DHT22;5293;51.464;-2.566;2023-05-10T13:50:58;17.80;99.90
10492;DHT22;5293;51.464;-2.566;2023-05-10T13:53:23;18.00;99.90
10492;DHT22;5293;51.464;-2.566;2023-05-10T13:55:49;18.00;99.90
10492;DHT22;5293;51.464;-2.566;2023-05-10T13:58:15;18.00;99.90
10492;DHT22;5293;51.464;-2.566;2023-05-10T14:00:40;18.00;99.90
10492;DHT22;5293;51.464;-2.566;2023-05-10T14:03:06;18.00;99.90
10492;DHT22;5293;51.464;-2.566;2023-05-10T14:05:34;17.90;99.90
10492;DHT22;5293;51.464;-2.566;2023-05-10T14:08:00;17.60;99.90
10492;DHT22;5293;51.464;-2.566;2023-05-10T14:10:25;17.70;99.90
10492;DHT22;5293;51.464;-2.566;2023-05-10T14:12:51;17.70;99.90
10492;DHT22;5293;51.464;-2.566;2023-05-10T14:15:17;17.40;99.90
10492;DHT22;5293;51.464;-2.566;2023-05-10T14:17:43;17.50;99.90
10492;DHT22;5293;51.464;-2.566;2023-05-10T14:20:09;17.40;99.90
10492;DHT22;5293;51.464;-2.566;2023-05-10T14:22:35;17.40;99.90
10492;DHT22;5293;51.464;-2.566;2023-05-10T14:25:00;17.50;99.90
10492;DHT22;5293;51.464;-2.566;2023-05-10T14:27:27;17.60;99.90
10492;DHT22;5293;51.464;-2.566;2023-05-10T14:29:52;17.40;99.90
10492;DHT22;5293;51.464;-2.566;2023-05-10T14:32:19;17.40;99.90
10492;DHT22;5293;51.464;-2.566;2023-05-10T14:34:45;17.50;99.90
10492;DHT22;5293;51.464;-2.566;2023-05-10T14:37:11;17.40;99.90
10492;DHT22;5293;51.464;-2.566;2023-05-10T14:39:37;17.20;99.90
10492;DHT22;5293;51.464;-2.566;2023-05-10T14:42:03;17.20;99.90
10492;DHT22;5293;51.464;-2.566;2023-05-10T14:44:29;17.10;99.90
10492;DHT22;5293;51.464;-2.566;2023-05-10T14:46:54;17.20;99.90
10492;DHT22;5293;51.464;-2.566;2023-05-10T14:49:21;17.30;99.90
10492;DHT22;5293;51.464;-2.566;2023-05-10T14:51:48;17.10;99.90
10492;DHT22;5293;51.464;-2.566;2023-05-10T14:54:14;17.20;99.90
10492;DHT22;5293;51.464;-2.566;2023-05-10T14:56:39;17.20;99.90
10492;DHT22;5293;51.464;-2.566;2023-05-10T14:59:07;17.20;99.90
10492;DHT22;5293;51.464;-2.566;2023-05-10T15:01:33;17.20;99.90
10492;DHT22;5293;51.464;-2.566;2023-05-10T15:04:00;17.20;99.90
10492;DHT22;5293;51.464;-2.566;2023-05-10T15:06:35;17.20;99.90
10492;DHT22;5293;51.464;-2.566;2023-05-10T15:09:01;17.10;99.90
10492;DHT22;5293;51.464;-2.566;2023-05-10T15:11:28;17.00;99.90
10492;DHT22;5293;51.464;-2.566;2023-05-10T15:13:54;16.90;99.90
10492;DHT22;5293;51.464;-2.566;2023-05-10T15:16:20;17.00;99.90
10492;DHT22;5293;51.464;-2.566;2023-05-10T15:18:46;17.00;99.90
10492;DHT22;5293;51.464;-2.566;2023-05-10T15:21:12;17.10;99.90
10492;DHT22;5293;51.464;-2.566;2023-05-10T15:23:38;17.00;99.90
10492;DHT22;5293;51.464;-2.566;2023-05-10T15:26:03;17.00;99.90
10492;DHT22;5293;51.464;-2.566;2023-05-10T15:28:29;17.00;99.90
10492;DHT22;5293;51.464;-2.566;2023-05-10T15:30:55;17.20;99.90
10492;DHT22;5293;51.464;-2.566;2023-05-10T15:33:21;17.20;99.90
10492;DHT22;5293;51.464;-2.566;2023-05-10T15:35:47;17.20;99.90
10492;DHT22;5293;51.464;-2.566;2023-05-10T15:38:13;17.20;99.90
10492;DHT22;5293;51.464;-2.566;2023-05-10T15:40:39;17.10;99.90
10492;DHT22;5293;51.464;-2.566;2023-05-10T15:43:05;17.00;99.90
10492;DHT22;5293;51.464;-2.566;2023-05-10T15:45:31;17.00;99.90
10492;DHT22;5293;51.464;-2.566;2023-05-10T15:47:57;17.00;99.90
10492;DHT22;5293;51.464;-2.566;2023-05-10T15:50:24;16.90;99.90
10492;DHT22;5293;51.464;-2.566;2023-05-10T15:52:50;16.80;99.90
10492;DHT22;5293;51.464;-2.566;2023-05-10T15:55:16;16.70;99.90
10492;DHT22;5293;51.464;-2.566;2023-05-10T15:57:42;16.70;99.90
10492;DHT22;5293;51.464;-2.566;2023-05-10T16:00:09;16.70;99.90